Endicott, New York
Current Conditions -  °F | °C
As of 12:53 AM on Saturday 29 Nov 2014 (Local Time) from KBGM Reporting Station
Overcast Overcast  
Wind Chill: 23°   Ceiling: 3500
Heat Index: 23°   Visibility: 10mi
Dew Point: 10°   Wind: 3mph
Humidity: 58%   Direction: 220°SW
Pressure: 30.16"   Gusts: NA
Location:  42.1°N, 76.05°W
Report Text: KBGM 290553Z 22003KT 10SM OVC035 M05/M12 A3016 RMK AO2 SLP234 T10501122 10011 21083 50000
Loading
Personal Weather Stations






























Interactive Weather Map New forecast layout! Learn more

10-Day Weather Forecast

Advertisements
Track Severe Weather on mobile